createdAt,value
2023-04-13T00:00:08.792Z,100.00
2023-04-13T00:02:39.120Z,100.00
2023-04-13T00:05:10.741Z,100.00
2023-04-13T00:07:38.657Z,100.00
2023-04-13T00:10:08.722Z,100.00
2023-04-13T00:12:38.785Z,100.00
2023-04-13T00:15:05.815Z,100.00
2023-04-13T00:17:35.977Z,100.00
2023-04-13T00:20:08.268Z,100.00
2023-04-13T00:22:34.748Z,100.00
2023-04-13T00:25:01.301Z,100.00
2023-04-13T00:27:27.809Z,100.00
2023-04-13T00:29:56.297Z,100.00
2023-04-13T00:32:23.061Z,100.00
2023-04-13T00:34:49.575Z,100.00
2023-04-13T00:37:16.020Z,100.00
2023-04-13T00:39:43.385Z,100.00
2023-04-13T00:42:11.029Z,100.00
2023-04-13T00:44:37.745Z,100.00
2023-04-13T00:47:06.415Z,100.00
2023-04-13T00:49:35.674Z,100.00
2023-04-13T00:52:02.929Z,100.00
2023-04-13T00:54:29.935Z,100.00
2023-04-13T00:56:59.388Z,100.00
2023-04-13T00:59:27.843Z,100.00
2023-04-13T01:01:57.547Z,100.00
2023-04-13T01:04:25.609Z,100.00
2023-04-13T01:07:06.923Z,100.00
2023-04-13T01:09:42.435Z,100.00
2023-04-13T01:12:34.356Z,100.00
2023-04-13T01:15:09.490Z,100.00
2023-04-13T01:17:39.066Z,100.00
2023-04-13T01:20:15.700Z,100.00
2023-04-13T01:22:49.209Z,100.00
2023-04-13T01:25:44.800Z,100.00
2023-04-13T01:28:15.890Z,100.00
2023-04-13T01:30:44.635Z,100.00
2023-04-13T01:33:12.497Z,100.00
2023-04-13T01:35:39.973Z,100.00
2023-04-13T01:38:08.759Z,100.00
2023-04-13T01:40:40.481Z,100.00
2023-04-13T01:43:08.473Z,100.00
2023-04-13T01:46:04.878Z,100.00
2023-04-13T01:48:51.612Z,100.00
2023-04-13T01:51:31.314Z,100.00
2023-04-13T01:54:11.107Z,100.00
2023-04-13T01:56:41.563Z,100.00
2023-04-13T01:59:09.399Z,100.00
2023-04-13T02:01:41.039Z,100.00
2023-04-13T02:04:07.772Z,100.00
2023-04-13T02:06:34.472Z,100.00
2023-04-13T02:09:06.673Z,100.00
2023-04-13T02:11:34.578Z,100.00
2023-04-13T02:14:03.976Z,100.00
2023-04-13T02:16:31.170Z,100.00
2023-04-13T02:18:58.369Z,100.00
2023-04-13T02:21:25.793Z,100.00
2023-04-13T02:23:52.571Z,100.00
2023-04-13T02:26:19.810Z,100.00
2023-04-13T02:28:47.328Z,100.00
2023-04-13T02:31:16.756Z,100.00
2023-04-13T02:33:44.726Z,100.00
2023-04-13T02:36:11.705Z,100.00
2023-04-13T02:38:46.004Z,100.00
2023-04-13T02:41:23.119Z,100.00
2023-04-13T02:43:50.776Z,100.00
2023-04-13T02:46:18.647Z,100.00
2023-04-13T02:48:45.406Z,100.00
2023-04-13T02:51:12.320Z,100.00
2023-04-13T02:53:41.230Z,100.00
2023-04-13T02:56:09.526Z,100.00
2023-04-13T02:58:36.817Z,100.00
2023-04-13T03:01:07.818Z,100.00
2023-04-13T03:03:34.955Z,100.00
2023-04-13T03:06:01.735Z,100.00
2023-04-13T03:08:46.237Z,100.00
2023-04-13T03:11:18.608Z,100.00
2023-04-13T03:13:54.008Z,100.00
2023-04-13T03:16:20.985Z,100.00
2023-04-13T03:18:47.808Z,100.00
2023-04-13T03:21:14.698Z,100.00
2023-04-13T03:23:49.668Z,100.00
2023-04-13T03:26:17.434Z,100.00
2023-04-13T03:28:43.837Z,100.00
2023-04-13T03:31:10.522Z,100.00
2023-04-13T03:33:38.112Z,100.00
2023-04-13T03:36:07.345Z,100.00
2023-04-13T03:38:36.470Z,100.00
2023-04-13T03:41:03.340Z,100.00
2023-04-13T03:43:31.632Z,100.00
2023-04-13T03:46:03.257Z,100.00
2023-04-13T03:48:30.869Z,100.00
2023-04-13T03:50:58.695Z,100.00
2023-04-13T03:53:31.559Z,100.00
2023-04-13T03:55:58.408Z,100.00
2023-04-13T03:58:24.840Z,100.00
2023-04-13T04:00:51.600Z,100.00
2023-04-13T04:03:30.481Z,100.00
2023-04-13T04:06:01.930Z,100.00
2023-04-13T04:08:29.453Z,100.00
2023-04-13T04:11:00.071Z,100.00
2023-04-13T04:13:28.450Z,100.00
2023-04-13T04:15:58.117Z,100.00
2023-04-13T04:18:24.732Z,100.00
2023-04-13T04:20:51.925Z,100.00
2023-04-13T04:23:19.896Z,100.00
2023-04-13T04:25:55.167Z,100.00
2023-04-13T04:28:22.065Z,100.00
2023-04-13T04:30:54.349Z,100.00
2023-04-13T04:33:24.728Z,100.00
2023-04-13T04:35:52.394Z,100.00
2023-04-13T04:38:23.607Z,100.00
2023-04-13T04:40:51.300Z,100.00
2023-04-13T04:43:17.728Z,100.00
2023-04-13T04:45:52.218Z,100.00
2023-04-13T04:48:20.219Z,100.00
2023-04-13T04:50:48.932Z,100.00
2023-04-13T04:53:16.571Z,100.00
2023-04-13T04:55:44.568Z,100.00
2023-04-13T04:58:19.615Z,100.00
2023-04-13T05:00:49.876Z,100.00
2023-04-13T05:03:17.349Z,100.00
2023-04-13T05:05:49.330Z,100.00
2023-04-13T05:08:22.063Z,100.00
2023-04-13T05:10:52.880Z,100.00
2023-04-13T05:13:19.538Z,100.00
2023-04-13T05:15:56.074Z,100.00
2023-04-13T05:18:22.569Z,100.00
2023-04-13T05:20:49.142Z,100.00
2023-04-13T05:23:15.586Z,100.00
2023-04-13T05:25:49.661Z,100.00
2023-04-13T05:28:21.792Z,100.00
2023-04-13T05:30:48.287Z,100.00
2023-04-13T05:33:17.026Z,100.00
2023-04-13T05:35:44.549Z,100.00
2023-04-13T05:38:11.754Z,100.00
2023-04-13T05:40:38.251Z,100.00
2023-04-13T05:43:04.939Z,100.00
2023-04-13T05:45:35.549Z,100.00
2023-04-13T05:48:12.447Z,100.00
2023-04-13T05:50:41.209Z,100.00
2023-04-13T05:53:08.929Z,100.00
2023-04-13T05:55:47.423Z,100.00
2023-04-13T05:58:14.999Z,100.00
2023-04-13T06:00:41.423Z,100.00
2023-04-13T06:03:13.048Z,100.00
2023-04-13T06:05:39.715Z,100.00
2023-04-13T06:08:06.125Z,100.00
2023-04-13T06:10:32.550Z,100.00
2023-04-13T06:12:59.329Z,100.00
2023-04-13T06:15:26.126Z,100.00
2023-04-13T06:17:53.625Z,100.00
2023-04-13T06:20:23.372Z,100.00
2023-04-13T06:22:49.794Z,100.00
2023-04-13T06:25:19.542Z,100.00
2023-04-13T06:27:49.730Z,100.00
2023-04-13T06:30:16.794Z,100.00
2023-04-13T06:32:43.941Z,100.00
2023-04-13T06:35:14.623Z,100.00
2023-04-13T06:37:45.309Z,100.00
2023-04-13T06:40:16.932Z,100.00
2023-04-13T06:42:54.372Z,100.00
2023-04-13T06:45:46.739Z,100.00
2023-04-13T06:48:19.487Z,100.00
2023-04-13T06:50:48.349Z,100.00
2023-04-13T06:53:14.779Z,100.00
2023-04-13T06:55:41.613Z,100.00
2023-04-13T06:58:08.943Z,100.00
2023-04-13T07:00:35.541Z,100.00
2023-04-13T07:03:02.280Z,100.00
2023-04-13T07:05:29.877Z,100.00
2023-04-13T07:08:02.997Z,100.00
2023-04-13T07:10:29.770Z,100.00
2023-04-13T07:12:59.828Z,100.00
2023-04-13T07:15:28.957Z,100.00
2023-04-13T07:17:55.969Z,100.00
2023-04-13T07:20:22.446Z,100.00
2023-04-13T07:22:48.857Z,100.00
2023-04-13T07:25:15.736Z,100.00
2023-04-13T07:27:42.206Z,100.00
2023-04-13T07:30:08.936Z,99.80
2023-04-13T07:32:40.867Z,99.50
2023-04-13T07:35:08.619Z,99.47
2023-04-13T07:37:37.023Z,97.99
2023-04-13T07:40:04.434Z,97.03
2023-04-13T07:42:32.710Z,95.30
2023-04-13T07:44:59.124Z,94.52
2023-04-13T07:47:27.571Z,93.23
2023-04-13T07:49:59.234Z,95.22
2023-04-13T07:52:26.379Z,93.47
2023-04-13T07:54:53.753Z,92.44
2023-04-13T07:57:22.327Z,91.82
2023-04-13T07:59:55.600Z,91.35
2023-04-13T08:02:23.315Z,91.31
2023-04-13T08:04:53.034Z,92.08
2023-04-13T08:07:24.153Z,87.19
2023-04-13T08:09:52.429Z,90.13
2023-04-13T08:12:19.331Z,90.82
2023-04-13T08:14:47.229Z,87.98
2023-04-13T08:17:13.821Z,86.60
2023-04-13T08:19:41.062Z,88.12
2023-04-13T08:22:11.589Z,84.60
2023-04-13T08:24:38.067Z,82.79
2023-04-13T08:27:07.291Z,81.18
2023-04-13T08:29:34.091Z,81.65
2023-04-13T08:32:01.062Z,80.49
2023-04-13T08:34:29.314Z,78.49
2023-04-13T08:36:55.813Z,79.09
2023-04-13T08:39:25.065Z,78.19
2023-04-13T08:41:51.915Z,79.44
2023-04-13T08:44:20.653Z,78.74
2023-04-13T08:46:51.316Z,78.08
2023-04-13T08:49:25.426Z,76.51
2023-04-13T08:52:24.640Z,77.53
2023-04-13T08:54:54.486Z,76.52
2023-04-13T08:57:29.400Z,77.47
2023-04-13T08:59:57.487Z,77.44
2023-04-13T09:02:28.247Z,77.26
2023-04-13T09:05:06.038Z,76.99
2023-04-13T09:07:36.549Z,77.14
2023-04-13T09:10:09.445Z,75.44
2023-04-13T09:12:42.706Z,75.76
2023-04-13T09:15:14.669Z,78.20
2023-04-13T09:17:50.516Z,75.56
2023-04-13T09:20:23.032Z,74.14
2023-04-13T09:22:51.499Z,72.84
2023-04-13T09:25:25.900Z,70.61
2023-04-13T09:27:52.678Z,73.97
2023-04-13T09:30:23.518Z,71.75
2023-04-13T09:33:05.759Z,70.50
2023-04-13T09:35:36.074Z,70.97
2023-04-13T09:38:03.062Z,69.42
2023-04-13T09:40:29.539Z,69.96
2023-04-13T09:43:07.919Z,68.17
2023-04-13T09:45:39.327Z,69.03
2023-04-13T09:48:16.996Z,67.49
2023-04-13T09:50:44.109Z,67.80
2023-04-13T09:53:10.839Z,69.29
2023-04-13T09:55:38.480Z,68.91
2023-04-13T09:58:13.612Z,64.32
2023-04-13T10:00:42.029Z,66.63
2023-04-13T10:03:13.496Z,65.25
2023-04-13T10:05:58.023Z,63.58
2023-04-13T10:08:36.553Z,65.07
2023-04-13T10:11:08.082Z,64.24
2023-04-13T10:13:45.797Z,62.76
2023-04-13T10:16:42.880Z,63.27
2023-04-13T10:19:12.485Z,63.25
2023-04-13T10:21:42.717Z,62.82
2023-04-13T10:24:12.713Z,63.14
2023-04-13T10:26:41.344Z,62.94
2023-04-13T10:29:13.406Z,63.35
2023-04-13T10:31:47.922Z,65.00
2023-04-13T10:34:25.589Z,62.62
2023-04-13T10:36:55.188Z,62.35
2023-04-13T10:39:27.382Z,61.73
2023-04-13T10:42:03.444Z,60.94
2023-04-13T10:44:52.324Z,61.48
2023-04-13T10:47:21.026Z,62.75
2023-04-13T10:49:48.713Z,62.74
2023-04-13T10:52:16.207Z,61.99
2023-04-13T10:54:43.829Z,61.50
2023-04-13T10:57:11.502Z,61.22
2023-04-13T10:59:58.947Z,61.19
2023-04-13T11:02:31.394Z,60.28
2023-04-13T11:04:58.854Z,60.68
2023-04-13T11:07:28.664Z,60.06
2023-04-13T11:10:04.138Z,60.21
2023-04-13T11:12:30.722Z,60.81
2023-04-13T11:14:57.332Z,60.04
2023-04-13T11:17:23.937Z,60.22
2023-04-13T11:19:51.903Z,59.78
2023-04-13T11:22:22.557Z,59.64
2023-04-13T11:24:49.915Z,60.35
2023-04-13T11:27:17.046Z,59.81
2023-04-13T11:29:43.531Z,59.83
2023-04-13T11:32:18.596Z,59.11
2023-04-13T11:34:45.270Z,59.83
2023-04-13T11:37:11.689Z,58.77
2023-04-13T11:39:39.286Z,59.25
2023-04-13T11:42:06.956Z,59.70
2023-04-13T11:44:37.223Z,60.26
2023-04-13T11:47:04.394Z,61.26
2023-04-13T11:49:32.061Z,61.24
2023-04-13T11:52:02.767Z,59.68
2023-04-13T11:54:30.244Z,58.71
2023-04-13T11:56:57.519Z,59.35
2023-04-13T11:59:24.793Z,59.28
2023-04-13T12:02:00.093Z,58.45
2023-04-13T12:04:36.976Z,57.57
2023-04-13T12:07:10.635Z,57.80
2023-04-13T12:09:56.277Z,59.21
2023-04-13T12:15:13.787Z,57.99
2023-04-13T12:17:49.652Z,58.28
2023-04-13T12:20:16.916Z,58.30
2023-04-13T12:25:15.338Z,59.20
2023-04-13T12:27:42.371Z,59.05
2023-04-13T12:30:13.533Z,57.78
2023-04-13T12:32:44.426Z,59.28
2023-04-13T12:35:10.921Z,58.84
2023-04-13T12:37:43.586Z,58.41
2023-04-13T12:40:13.307Z,58.41
2023-04-13T12:42:42.641Z,58.54
2023-04-13T12:45:09.695Z,58.17
2023-04-13T12:47:37.059Z,58.38
2023-04-13T12:50:08.076Z,56.67
2023-04-13T12:52:35.451Z,57.61
2023-04-13T12:55:02.369Z,57.80
2023-04-13T12:57:29.674Z,58.69
2023-04-13T12:59:57.010Z,57.20
2023-04-13T13:02:24.443Z,56.23
2023-04-13T13:04:51.773Z,55.72
2023-04-13T13:07:19.114Z,55.51
2023-04-13T13:09:45.900Z,57.58
2023-04-13T13:12:12.299Z,55.71
2023-04-13T13:14:38.830Z,55.40
2023-04-13T13:17:05.286Z,54.11
2023-04-13T13:19:31.703Z,52.05
2023-04-13T13:21:59.842Z,53.08
2023-04-13T13:24:29.752Z,53.34
2023-04-13T13:29:33.306Z,52.21
2023-04-13T13:32:00.431Z,51.53
2023-04-13T13:34:39.065Z,51.55
2023-04-13T13:37:05.740Z,51.78
2023-04-13T13:39:32.325Z,53.64
2023-04-13T13:41:58.941Z,51.53
2023-04-13T13:44:25.427Z,51.85
2023-04-13T13:46:51.870Z,52.99
2023-04-13T13:49:20.576Z,53.49
2023-04-13T13:52:05.321Z,52.45
2023-04-13T13:54:39.444Z,52.46
2023-04-13T13:57:05.858Z,52.40
2023-04-13T13:59:32.298Z,52.82
2023-04-13T14:01:59.852Z,53.02
2023-04-13T14:04:26.475Z,53.58
2023-04-13T14:06:52.901Z,53.30
2023-04-13T14:09:19.310Z,53.66
2023-04-13T14:11:45.766Z,53.68
2023-04-13T14:14:21.032Z,53.98
2023-04-13T14:16:48.553Z,53.62
2023-04-13T14:19:14.985Z,53.69
2023-04-13T14:21:56.605Z,53.04
2023-04-13T14:24:25.226Z,53.79
2023-04-13T14:26:52.686Z,53.75
2023-04-13T14:29:19.095Z,53.86
2023-04-13T14:31:45.650Z,53.79
2023-04-13T14:34:12.182Z,54.13
2023-04-13T14:36:39.154Z,52.55
2023-04-13T14:39:06.197Z,53.38
2023-04-13T14:41:32.632Z,52.98
2023-04-13T14:43:59.053Z,53.16
2023-04-13T14:46:27.912Z,52.91
2023-04-13T14:48:54.336Z,52.97
2023-04-13T14:51:21.428Z,53.13
2023-04-13T14:53:47.826Z,53.37
2023-04-13T14:56:14.241Z,53.17
2023-04-13T14:58:43.206Z,54.04
2023-04-13T15:01:19.851Z,54.24
2023-04-13T15:03:46.911Z,53.11
2023-04-13T15:06:14.118Z,53.19
2023-04-13T15:08:55.898Z,54.51
2023-04-13T15:11:22.676Z,53.71
2023-04-13T15:13:49.241Z,53.88
2023-04-13T15:16:16.158Z,53.58
2023-04-13T15:18:42.639Z,53.68
2023-04-13T15:21:09.048Z,53.38
2023-04-13T15:23:36.452Z,53.99
2023-04-13T15:26:02.987Z,54.26
2023-04-13T15:28:29.438Z,54.12
2023-04-13T15:30:55.844Z,54.08
2023-04-13T15:33:22.256Z,53.95
2023-04-13T15:35:48.691Z,53.98
2023-04-13T15:38:15.091Z,54.49
2023-04-13T15:40:42.146Z,54.60
2023-04-13T15:43:08.575Z,55.23
2023-04-13T15:45:35.415Z,55.20
2023-04-13T15:48:02.734Z,55.49
2023-04-13T15:50:29.269Z,56.63
2023-04-13T15:52:57.037Z,55.70
2023-04-13T15:55:23.541Z,55.40
2023-04-13T15:57:50.679Z,55.38
2023-04-13T16:00:17.425Z,55.17
2023-04-13T16:02:44.059Z,55.85
2023-04-13T16:05:10.577Z,55.92
2023-04-13T16:07:36.991Z,56.06
2023-04-13T16:10:04.261Z,56.48
2023-04-13T16:12:34.721Z,55.86
2023-04-13T16:15:04.264Z,55.49
2023-04-13T16:17:31.725Z,55.64
2023-04-13T16:20:08.222Z,54.99
2023-04-13T16:22:37.624Z,55.38
2023-04-13T16:25:05.508Z,55.44
2023-04-13T16:27:32.461Z,55.31
2023-04-13T16:29:59.735Z,55.29
2023-04-13T16:32:26.286Z,55.40
2023-04-13T16:34:52.871Z,55.24
2023-04-13T16:37:19.281Z,55.03
2023-04-13T16:39:46.819Z,54.84
2023-04-13T16:42:13.899Z,55.02
2023-04-13T16:44:40.336Z,55.30
2023-04-13T16:47:06.742Z,55.39
2023-04-13T16:49:33.448Z,55.48
2023-04-13T16:52:00.203Z,55.67
2023-04-13T16:54:27.159Z,55.60
2023-04-13T16:56:53.678Z,55.97
2023-04-13T16:59:20.933Z,56.03
2023-04-13T17:01:47.549Z,56.50
2023-04-13T17:04:14.133Z,56.32
2023-04-13T17:06:41.022Z,56.53
2023-04-13T17:09:08.154Z,56.84
2023-04-13T17:11:34.594Z,56.68
2023-04-13T17:14:01.054Z,56.60
2023-04-13T17:16:29.426Z,56.81
2023-04-13T17:18:56.627Z,56.94
2023-04-13T17:21:23.141Z,56.57
2023-04-13T17:23:49.634Z,56.65
2023-04-13T17:26:16.295Z,56.75
2023-04-13T17:28:42.699Z,57.04
2023-04-13T17:31:09.142Z,57.91
2023-04-13T17:33:35.545Z,59.35
2023-04-13T17:36:01.947Z,58.67
2023-04-13T17:38:28.393Z,58.09
2023-04-13T17:40:54.810Z,57.39
2023-04-13T17:43:21.201Z,56.91
2023-04-13T17:45:47.673Z,57.29
2023-04-13T17:48:14.155Z,57.75
2023-04-13T17:50:40.564Z,58.52
2023-04-13T17:53:06.959Z,60.15
2023-04-13T17:55:36.630Z,62.47
2023-04-13T17:58:03.063Z,64.40
2023-04-13T18:00:29.445Z,65.71
2023-04-13T18:02:56.035Z,67.11
2023-04-13T18:05:22.624Z,68.96
2023-04-13T18:07:49.357Z,69.93
2023-04-13T18:10:15.746Z,69.74
2023-04-13T18:12:42.296Z,69.30
2023-04-13T18:15:09.387Z,69.08
2023-04-13T18:17:36.624Z,68.00
2023-04-13T18:20:03.353Z,69.02
2023-04-13T18:22:29.934Z,70.27
2023-04-13T18:24:56.328Z,69.26
2023-04-13T18:27:23.114Z,70.98
2023-04-13T18:29:49.510Z,69.61
2023-04-13T18:32:17.061Z,71.52
2023-04-13T18:34:44.130Z,72.15
2023-04-13T18:37:11.303Z,73.08
2023-04-13T18:39:38.326Z,73.57
2023-04-13T18:42:04.802Z,74.03
2023-04-13T18:44:31.215Z,73.30
2023-04-13T18:46:57.628Z,74.31
2023-04-13T18:49:24.063Z,74.85
2023-04-13T18:51:50.697Z,75.26
2023-04-13T18:54:17.149Z,74.65
2023-04-13T18:56:43.536Z,75.48
2023-04-13T18:59:12.825Z,75.67
2023-04-13T19:01:39.289Z,75.66
2023-04-13T19:04:06.134Z,76.45
2023-04-13T19:06:32.972Z,75.08
2023-04-13T19:08:59.388Z,75.43
2023-04-13T19:11:27.523Z,75.27
2023-04-13T19:13:54.191Z,75.74
2023-04-13T19:16:21.737Z,75.47
2023-04-13T19:18:48.215Z,75.58
2023-04-13T19:21:14.599Z,76.87
2023-04-13T19:23:40.987Z,77.19
2023-04-13T19:26:07.538Z,77.87
2023-04-13T19:28:33.933Z,76.51
2023-04-13T19:31:00.500Z,76.56
2023-04-13T19:33:26.901Z,77.54
2023-04-13T19:35:53.384Z,77.77
2023-04-13T19:38:19.912Z,77.10
2023-04-13T19:40:46.308Z,76.79
2023-04-13T19:43:12.751Z,77.37
2023-04-13T19:45:40.629Z,76.81
2023-04-13T19:48:07.149Z,76.08
2023-04-13T19:50:33.583Z,76.65
2023-04-13T19:53:00.022Z,76.53
2023-04-13T19:55:28.228Z,77.12
2023-04-13T19:57:54.621Z,78.48
2023-04-13T20:00:22.312Z,78.02
2023-04-13T20:02:50.833Z,77.62
2023-04-13T20:05:19.813Z,78.19
2023-04-13T20:07:46.234Z,78.75
2023-04-13T20:10:12.825Z,79.11
2023-04-13T20:12:39.580Z,77.77
2023-04-13T20:15:06.870Z,78.00
2023-04-13T20:17:33.380Z,79.09
2023-04-13T20:20:00.138Z,79.27
2023-04-13T20:22:26.562Z,80.04
2023-04-13T20:24:53.061Z,79.76
2023-04-13T20:27:21.471Z,79.50
2023-04-13T20:29:48.830Z,79.21
2023-04-13T20:32:15.843Z,80.49
2023-04-13T20:34:42.972Z,79.75
2023-04-13T20:37:14.380Z,79.21
2023-04-13T20:39:50.090Z,78.92
2023-04-13T20:42:20.436Z,79.23
2023-04-13T20:44:46.960Z,80.07
2023-04-13T20:47:13.796Z,80.31
2023-04-13T20:49:47.099Z,80.54
2023-04-13T20:52:14.042Z,79.27
2023-04-13T20:54:41.440Z,79.51
2023-04-13T20:57:09.156Z,79.76
2023-04-13T20:59:37.223Z,80.88
2023-04-13T21:02:04.645Z,81.19
2023-04-13T21:04:31.573Z,81.53
2023-04-13T21:06:57.977Z,82.01
2023-04-13T21:09:24.375Z,81.55
2023-04-13T21:11:50.796Z,81.67
2023-04-13T21:14:21.142Z,81.75
2023-04-13T21:16:47.615Z,81.81
2023-04-13T21:19:14.036Z,81.90
2023-04-13T21:21:40.649Z,81.91
2023-04-13T21:24:07.268Z,81.58
2023-04-13T21:26:33.656Z,81.64
2023-04-13T21:29:00.350Z,80.99
2023-04-13T21:31:26.753Z,81.88
2023-04-13T21:33:54.607Z,82.19
2023-04-13T21:38:50.331Z,80.35
2023-04-13T21:41:20.886Z,80.85
2023-04-13T21:43:47.973Z,81.86
2023-04-13T21:46:15.626Z,82.29
2023-04-13T21:48:42.237Z,82.15
2023-04-13T21:51:09.479Z,82.67
2023-04-13T21:53:36.518Z,82.63
2023-04-13T21:56:03.181Z,82.51
2023-04-13T21:58:38.348Z,81.88
2023-04-13T22:01:04.941Z,82.35
2023-04-13T22:03:31.623Z,82.37
2023-04-13T22:05:58.416Z,81.82
2023-04-13T22:08:24.816Z,82.04
2023-04-13T22:10:51.214Z,83.51
2023-04-13T22:13:17.663Z,83.88
2023-04-13T22:15:44.122Z,83.13
2023-04-13T22:18:11.044Z,83.23
2023-04-13T22:20:37.539Z,83.56
2023-04-13T22:23:03.952Z,83.61
2023-04-13T22:25:30.362Z,84.14
2023-04-13T22:27:59.570Z,84.47
2023-04-13T22:30:26.173Z,84.67
2023-04-13T22:32:52.616Z,85.20
2023-04-13T22:35:19.083Z,85.06
2023-04-13T22:37:45.483Z,84.93
2023-04-13T22:40:12.017Z,85.31
2023-04-13T22:42:38.427Z,84.91
2023-04-13T22:45:05.207Z,84.02
2023-04-13T22:47:31.701Z,84.67
2023-04-13T22:49:59.972Z,83.68
2023-04-13T22:52:26.793Z,83.88
2023-04-13T22:54:53.756Z,84.27
2023-04-13T22:57:20.714Z,85.53
2023-04-13T22:59:47.337Z,85.25
2023-04-13T23:02:13.752Z,85.03
2023-04-13T23:04:40.298Z,84.32
2023-04-13T23:07:06.837Z,85.18
2023-04-13T23:09:33.445Z,84.71
2023-04-13T23:11:59.844Z,84.36
2023-04-13T23:14:26.267Z,83.72
2023-04-13T23:16:52.661Z,84.25
2023-04-13T23:19:22.189Z,84.70
2023-04-13T23:21:48.591Z,84.57
2023-04-13T23:24:14.974Z,83.98
2023-04-13T23:26:41.382Z,84.58
2023-04-13T23:29:07.890Z,85.77
2023-04-13T23:31:34.315Z,86.54
2023-04-13T23:34:00.733Z,87.16
2023-04-13T23:36:27.518Z,86.12
2023-04-13T23:38:53.929Z,86.63
2023-04-13T23:41:21.100Z,86.60
2023-04-13T23:43:47.523Z,86.33
2023-04-13T23:46:17.169Z,85.67
2023-04-13T23:48:43.561Z,85.26
2023-04-13T23:51:09.986Z,85.30
2023-04-13T23:53:36.652Z,87.08
2023-04-13T23:56:03.072Z,86.53
2023-04-13T23:58:29.523Z,87.70
